Time;durP1;ratioP1;P1;durP2;ratioP2;P2;SDS_P1;SDS_P2;PMS_P1;PMS_P2;Temp;Humidity;BMP_temperature;BMP_pressure;BME280_temperature;BME280_humidity;BME280_pressure;Samples;Min_cycle;Max_cycle;Signal;HPM_P1;HPM_P2
2022/06/20 00:00:24;;;;;;;3.72;2.37;;;;;;;20.65;48.18;99513.34;7711402;32;36897;-74
2022/06/20 00:04:40;;;;;;;4.00;2.35;;;;;;;20.62;48.85;99507.31;7697711;32;40003;-74
2022/06/20 00:08:56;;;;;;;5.53;2.33;;;;;;;20.56;49.22;99497.63;7710778;32;40765;-73
2022/06/20 00:13:34;;;;;;;3.28;2.28;;;;;;;20.69;49.24;99494.88;7697435;32;38767;-74
2022/06/20 00:17:51;;;;;;;5.37;2.50;;;;;;;20.83;47.18;99489.78;7697927;32;37116;-74
2022/06/20 00:22:07;;;;;;;3.70;2.05;;;;;;;20.22;48.87;99494.12;7697269;32;40082;-74
2022/06/20 00:26:23;;;;;;;3.25;2.20;;;;;;;20.46;48.24;99498.06;7710988;32;39904;-75
2022/06/20 00:30:40;;;;;;;3.37;2.20;;;;;;;20.43;48.30;99484.91;7710274;32;38511;-74
2022/06/20 00:34:56;;;;;;;3.62;2.35;;;;;;;20.24;49.31;99491.81;7710763;32;38172;-74
2022/06/20 00:39:13;;;;;;;2.70;2.20;;;;;;;20.21;49.34;99483.41;7710785;32;39387;-74
2022/06/20 00:43:41;;;;;;;4.57;2.53;;;;;;;20.23;49.43;99470.84;7696961;32;40848;-74
2022/06/20 00:48:05;;;;;;;4.35;2.47;;;;;;;19.83;50.43;99467.87;7710516;32;38937;-73
2022/06/20 00:52:31;;;;;;;4.95;2.40;;;;;;;19.56;52.29;99480.31;7697590;32;37892;-74
2022/06/20 00:56:56;;;;;;;8.13;2.62;;;;;;;19.77;51.50;99470.06;7697276;32;39266;-74
2022/06/20 01:01:17;;;;;;;3.47;2.40;;;;;;;19.71;52.74;99460.31;7710129;32;39987;-73
2022/06/20 01:05:54;;;;;;;4.00;2.30;;;;;;;19.44;53.44;99451.47;7710381;32;38446;-74
2022/06/20 01:10:12;;;;;;;4.03;2.40;;;;;;;19.72;52.30;99456.41;7710088;32;37896;-74
2022/06/20 01:14:38;;;;;;;6.28;2.78;;;;;;;19.38;52.94;99444.53;7696513;32;38446;-75
2022/06/20 01:18:56;;;;;;;3.92;2.60;;;;;;;19.38;52.34;99439.00;7710077;32;39938;-74
2022/06/20 01:23:12;;;;;;;3.75;2.65;;;;;;;19.21;53.11;99442.72;7695884;32;38604;-74
2022/06/20 01:27:43;;;;;;;4.57;3.20;;;;;;;19.51;51.98;99432.38;7709686;32;37842;-75
2022/06/20 01:32:00;;;;;;;8.10;2.70;;;;;;;19.39;52.12;99432.34;7696363;32;39880;-75
2022/06/20 01:45:57;;;;;;;4.25;2.47;;;;;;;19.55;52.94;99426.19;7653971;32;37614;-75
2022/06/20 01:50:13;;;;;;;4.47;2.95;;;;;;;19.50;53.33;99424.44;7686106;32;40062;-74
2022/06/20 01:54:32;;;;;;;5.75;2.40;;;;;;;19.51;53.28;99426.06;7686190;32;40568;-74
2022/06/20 01:58:59;;;;;;;6.18;2.78;;;;;;;19.31;53.82;99422.97;7672759;32;38605;-73
2022/06/20 02:03:17;;;;;;;5.25;2.80;;;;;;;19.40;53.34;99424.84;7672855;32;37264;-74
2022/06/20 02:07:34;;;;;;;6.05;2.70;;;;;;;19.47;52.97;99414.87;7692372;32;39610;-75
2022/06/20 02:11:50;;;;;;;5.03;2.80;;;;;;;19.61;52.82;99410.97;7712626;32;40008;-74
2022/06/20 02:16:10;;;;;;;6.12;3.12;;;;;;;19.31;53.79;99406.37;7712572;32;38075;-73
2022/06/20 02:20:45;;;;;;;5.72;2.92;;;;;;;19.28;54.08;99406.25;7698707;32;37015;-75
2022/06/20 02:25:06;;;;;;;3.80;2.72;;;;;;;19.13;54.54;99407.72;7701105;32;40210;-74
2022/06/20 02:29:26;;;;;;;4.12;2.70;;;;;;;18.98;55.32;99406.37;7698860;32;40701;-74
2022/06/20 02:33:42;;;;;;;4.93;2.60;;;;;;;19.30;54.03;99409.50;7712603;32;37929;-74
2022/06/20 02:37:58;;;;;;;4.37;2.70;;;;;;;19.24;54.22;99386.78;7698593;32;37821;-73
2022/06/20 02:42:24;;;;;;;4.30;2.70;;;;;;;19.02;55.03;99373.34;7712183;32;40159;-74
2022/06/20 02:46:41;;;;;;;5.32;2.78;;;;;;;19.22;54.38;99374.47;7699536;32;40717;-73
2022/06/20 02:51:00;;;;;;;4.53;2.62;;;;;;;18.97;55.41;99377.13;7711666;32;37869;-74
2022/06/20 02:55:17;;;;;;;6.87;3.53;;;;;;;19.02;54.81;99373.34;7697704;32;37073;-74
2022/06/20 02:59:37;;;;;;;6.80;3.35;;;;;;;19.00;54.44;99376.44;7712176;32;39116;-74
2022/06/20 03:03:55;;;;;;;6.87;3.22;;;;;;;19.17;53.86;99360.87;7712024;32;40968;-74
2022/06/20 03:08:13;;;;;;;7.20;2.97;;;;;;;19.07;53.38;99364.84;7711709;32;36976;-75
2022/06/20 03:12:32;;;;;;;6.32;2.97;;;;;;;19.22;52.88;99363.41;7698538;32;36121;-74
2022/06/20 03:16:48;;;;;;;4.78;3.00;;;;;;;19.20;53.57;99357.44;7711957;32;39489;-74
2022/06/20 03:21:04;;;;;;;5.40;2.90;;;;;;;18.97;54.89;99354.22;7711827;32;40090;-74
2022/06/20 03:25:21;;;;;;;6.60;2.97;;;;;;;19.09;54.67;99366.16;7698115;32;38703;-74
2022/06/20 03:29:38;;;;;;;6.07;2.90;;;;;;;19.30;54.22;99374.38;7711237;32;37250;-74
2022/06/20 03:33:54;;;;;;;7.53;3.05;;;;;;;19.15;55.07;99375.03;7698188;32;39366;-74
2022/06/20 03:38:11;;;;;;;4.35;2.83;;;;;;;19.12;55.00;99379.25;7697876;32;40058;-74
2022/06/20 03:42:27;;;;;;;3.80;2.70;;;;;;;19.12;55.37;99372.94;7711618;32;37604;-75
2022/06/20 03:46:57;;;;;;;3.92;2.70;;;;;;;19.20;55.17;99368.50;7698123;32;36832;-75
2022/06/20 03:51:24;;;;;;;4.65;3.00;;;;;;;19.28;55.03;99365.62;7698122;32;40146;-74
2022/06/20 03:55:50;;;;;;;5.32;2.80;;;;;;;19.13;55.86;99371.78;7698462;32;40811;-73
2022/06/20 04:00:11;;;;;;;25.98;11.75;;;;;;;19.16;55.82;99367.53;7711123;32;38710;-75
2022/06/20 04:04:42;;;;;;;11.52;7.12;;;;;;;19.20;56.11;99362.97;7711334;32;37226;-75
2022/06/20 04:14:04;;;;;;;12.57;5.87;;;;;;;19.60;54.83;99370.66;7699611;32;40201;-75
2022/06/20 04:18:28;;;;;;;6.40;4.20;;;;;;;19.58;54.94;99373.78;7691344;32;38852;-74
2022/06/20 04:22:47;;;;;;;5.53;3.70;;;;;;;19.52;55.34;99364.91;7711132;32;37140;-75
2022/06/20 04:27:18;;;;;;;6.07;3.40;;;;;;;19.51;55.68;99365.25;7711132;32;39148;-75
2022/06/20 04:31:44;;;;;;;7.68;3.60;;;;;;;19.64;55.17;99366.06;7710860;32;39720;-75
2022/06/20 04:36:22;;;;;;;9.15;3.50;;;;;;;19.84;54.38;99370.72;7710745;32;37942;-75
2022/06/20 04:40:50;;;;;;;8.93;3.33;;;;;;;19.85;54.72;99369.59;7710818;32;37055;-75
2022/06/20 04:45:30;;;;;;;5.10;3.08;;;;;;;20.10;53.67;99363.25;7710837;32;39689;-75
2022/06/20 04:49:46;;;;;;;5.57;3.05;;;;;;;20.17;53.39;99372.59;7697866;32;40783;-75
2022/06/20 04:54:13;;;;;;;6.55;2.92;;;;;;;19.96;54.40;99375.47;7710441;32;38773;-74
2022/06/20 04:58:34;;;;;;;6.65;2.90;;;;;;;20.37;53.28;99376.37;7697272;32;37139;-75
2022/06/20 05:02:51;;;;;;;18.00;3.30;;;;;;;20.50;53.09;99379.12;7697136;32;39345;-75
2022/06/20 05:07:16;;;;;;;;;;;;;;;20.69;51.91;99375.78;7710618;32;39618;-74
2022/06/20 05:11:42;;;;;;;7.50;3.15;;;;;;;20.55;52.89;99376.94;7709863;32;37308;-75
2022/06/20 05:15:59;;;;;;;6.00;3.30;;;;;;;20.88;51.46;99364.06;7710056;32;37123;-74
2022/06/20 05:20:34;;;;;;;6.55;3.28;;;;;;;20.88;52.29;99367.63;7711567;32;39311;-75
2022/06/20 05:24:52;;;;;;;4.78;2.83;;;;;;;20.91;52.21;99372.47;7700598;32;40044;-75
2022/06/20 05:29:30;;;;;;;5.25;3.00;;;;;;;21.22;51.04;99376.53;7699222;32;37900;-75
2022/06/20 05:34:20;;;;;;;6.00;3.40;;;;;;;21.72;49.79;99382.63;7701572;32;37054;-75
2022/06/20 05:38:58;;;;;;;7.53;3.10;;;;;;;21.99;49.45;99375.41;7702870;32;40047;-75
2022/06/20 05:43:21;;;;;;;6.97;3.25;;;;;;;21.92;49.48;99364.94;7713482;32;38469;-74
2022/06/20 05:47:38;;;;;;;6.87;2.75;;;;;;;22.07;50.89;99382.72;7713112;32;38501;-75
2022/06/20 05:51:55;;;;;;;7.82;4.30;;;;;;;22.34;50.27;99379.44;7712691;32;37872;-75
2022/06/20 05:56:14;;;;;;;9.23;4.70;;;;;;;22.61;49.93;99372.09;7699263;32;39481;-75
2022/06/20 06:00:33;;;;;;;6.70;2.60;;;;;;;22.81;48.82;99354.28;7712913;32;40055;-75
2022/06/20 06:04:58;;;;;;;9.95;2.70;;;;;;;22.99;48.54;99342.72;7699400;32;37975;-75
2022/06/20 06:09:22;;;;;;;8.80;3.40;;;;;;;22.95;47.95;99358.53;7712451;32;37877;-76
2022/06/20 06:13:49;;;;;;;4.12;2.72;;;;;;;22.97;48.40;99375.63;7699171;32;40013;-71
2022/06/20 06:18:13;;;;;;;7.87;3.00;;;;;;;23.36;47.17;99358.97;7712794;32;39989;-73
2022/06/20 06:22:35;;;;;;;7.28;3.28;;;;;;;23.79;45.55;99351.38;7712420;32;38508;-69
2022/06/20 06:26:55;;;;;;;4.60;2.78;;;;;;;24.18;44.17;99352.06;7698889;32;38021;-74
2022/06/20 06:31:31;;;;;;;6.57;2.90;;;;;;;24.52;43.48;99345.75;7698230;32;40401;-74
2022/06/20 06:35:54;;;;;;;7.40;2.60;;;;;;;24.82;42.81;99334.66;7699463;32;39675;-81
2022/06/20 06:40:20;;;;;;;4.90;2.77;;;;;;;25.03;42.24;99322.94;7698938;32;37929;-78
2022/06/20 06:44:43;;;;;;;7.18;2.60;;;;;;;25.37;41.27;99320.16;7698472;32;37542;-79
2022/06/20 06:49:23;;;;;;;4.65;2.55;;;;;;;25.44;39.63;99322.19;7698542;32;39167;-80
2022/06/20 06:53:45;;;;;;;7.28;3.33;;;;;;;26.08;39.02;99322.00;7711468;32;39862;-75
2022/06/20 06:58:29;;;;;;;4.03;2.53;;;;;;;26.16;41.59;99317.22;7698198;32;37724;-76
2022/06/20 07:02:58;;;;;;;7.35;3.00;;;;;;;26.45;41.70;99304.25;7710771;32;37128;-77
2022/06/20 07:07:35;;;;;;;8.95;3.17;;;;;;;26.60;37.95;99297.53;7698460;32;39913;-75
2022/06/20 07:12:34;;;;;;;9.25;3.47;;;;;;;26.98;38.53;99280.53;7700271;32;40790;-76
2022/06/20 07:17:18;;;;;;;12.80;6.07;;;;;;;27.17;37.94;99270.97;7691879;32;38613;-71
2022/06/20 07:21:37;;;;;;;7.95;3.25;;;;;;;27.54;38.08;99264.22;7687430;32;37727;-80
2022/06/20 07:25:53;;;;;;;24.67;9.90;;;;;;;27.58;38.33;99262.25;7672166;32;38990;-76
2022/06/20 07:30:23;;;;;;;17.40;7.90;;;;;;;27.93;37.83;99259.84;7684300;32;39909;-76
2022/06/20 07:34:49;;;;;;;9.48;5.25;;;;;;;28.12;37.65;99262.22;7685605;32;37955;-76
2022/06/20 07:39:18;;;;;;;8.52;3.75;;;;;;;28.29;37.69;99257.78;7679902;32;36198;-77
2022/06/20 07:43:51;;;;;;;8.30;4.28;;;;;;;28.45;37.47;99263.69;7670117;32;39408;-76
2022/06/20 07:48:24;;;;;;;18.98;10.90;;;;;;;28.36;38.00;99260.53;7684281;32;39753;-79
2022/06/20 07:52:42;;;;;;;12.00;5.93;;;;;;;28.96;36.88;99269.09;7683567;32;38035;-77
2022/06/20 07:57:17;;;;;;;10.85;6.37;;;;;;;28.91;37.00;99264.75;7704258;32;37148;-76
2022/06/20 08:01:49;;;;;;;14.07;6.65;;;;;;;29.19;36.42;99258.16;7695300;32;39729;-75
2022/06/20 08:06:17;;;;;;;8.00;5.15;;;;;;;28.79;35.78;99263.19;7709249;32;39742;-75
2022/06/20 08:10:37;;;;;;;11.57;6.80;;;;;;;29.58;37.34;99253.50;7684860;32;37864;-76
2022/06/20 08:15:03;;;;;;;8.93;5.70;;;;;;;29.70;36.67;99249.34;7696379;32;35734;-76
2022/06/20 08:19:20;;;;;;;5.75;3.28;;;;;;;29.72;36.50;99235.72;7698035;32;39848;-76
2022/06/20 08:23:46;;;;;;;30.52;18.77;;;;;;;30.14;36.58;99244.94;7710506;32;39969;-76
2022/06/20 08:28:17;;;;;;;7.40;3.25;;;;;;;29.89;35.43;99233.94;7697662;32;38645;-76
2022/06/20 08:32:34;;;;;;;7.00;3.25;;;;;;;30.09;33.13;99236.97;7696302;32;37010;-75
2022/06/20 08:37:29;;;;;;;5.45;3.10;;;;;;;29.89;36.19;99228.31;7696898;32;39309;-76
2022/06/20 08:41:48;;;;;;;3.55;2.80;;;;;;;30.50;34.57;99222.06;7709621;32;40904;-76
2022/06/20 08:46:17;;;;;;;7.07;3.08;;;;;;;30.60;33.83;99223.94;7709982;32;38002;-78
2022/06/20 08:51:01;;;;;;;7.47;3.20;;;;;;;30.90;33.64;99216.69;7709001;32;36873;-78
2022/06/20 08:55:52;;;;;;;5.22;3.00;;;;;;;30.84;31.73;99215.59;7696338;32;39333;-77
2022/06/20 09:00:11;;;;;;;7.70;2.85;;;;;;;31.11;32.32;99209.16;7694720;32;40729;-76
2022/06/20 09:05:09;;;;;;;5.57;3.05;;;;;;;30.85;31.87;99209.50;7709819;32;37833;-74
2022/06/20 09:09:46;;;;;;;8.35;4.47;;;;;;;30.99;30.21;99204.91;7710292;32;37790;-74
2022/06/20 09:14:11;;;;;;;7.75;3.40;;;;;;;30.85;31.47;99195.44;7709616;32;39289;-74
2022/06/20 09:18:56;;;;;;;5.57;3.20;;;;;;;30.92;30.33;99191.72;7706636;32;39745;-71
2022/06/20 09:23:31;;;;;;;11.12;3.87;;;;;;;30.88;30.15;99185.37;7706056;32;38643;-73
2022/06/20 09:27:56;;;;;;;9.52;3.45;;;;;;;30.70;30.32;99179.97;7708412;32;37034;-72
2022/06/20 09:32:24;;;;;;;11.38;4.32;;;;;;;30.77;30.74;99168.66;7709515;32;39331;-74
2022/06/20 09:36:49;;;;;;;16.83;5.55;;;;;;;30.46;30.74;99176.28;7709511;32;40124;-73
2022/06/20 09:41:23;;;;;;;12.55;5.10;;;;;;;30.79;32.01;99168.22;7709364;32;38174;-75
2022/06/20 09:46:04;;;;;;;13.50;6.45;;;;;;;31.16;31.80;99146.75;7709339;32;37161;-75
2022/06/20 09:50:52;;;;;;;7.62;4.50;;;;;;;31.17;31.11;99142.72;7708945;32;40095;-76
2022/06/20 09:55:37;;;;;;;8.73;3.83;;;;;;;31.39;31.95;99135.50;7708729;32;40135;-79
2022/06/20 10:00:01;;;;;;;10.38;3.78;;;;;;;31.85;32.02;99138.69;7708848;32;37474;-73
2022/06/20 10:04:45;;;;;;;6.28;3.35;;;;;;;31.94;29.27;99124.84;7694659;32;37131;-76
2022/06/20 10:09:29;;;;;;;6.95;3.33;;;;;;;32.24;27.75;99120.19;7701975;32;39328;-74
2022/06/20 10:14:04;;;;;;;7.20;3.50;;;;;;;32.06;29.06;99129.03;7699497;32;39653;-73
2022/06/20 10:18:36;;;;;;;5.72;3.20;;;;;;;31.93;28.97;99122.44;7699874;32;38046;-74
2022/06/20 10:23:13;;;;;;;10.45;3.83;;;;;;;32.19;27.83;99113.03;7712503;32;37876;-73
2022/06/20 10:28:17;;;;;;;9.88;3.50;;;;;;;32.54;26.40;99136.03;7677921;32;39151;-74
2022/06/20 10:32:41;;;;;;;7.78;4.00;;;;;;;32.31;27.67;99119.25;7634184;32;40435;-75
2022/06/20 10:37:18;;;;;;;6.10;3.50;;;;;;;32.29;26.37;99119.69;7711966;32;37683;-74
2022/06/20 10:42:02;;;;;;;5.87;3.65;;;;;;;32.81;26.01;99118.13;7700640;32;37275;-74
2022/06/20 10:46:39;;;;;;;8.95;3.45;;;;;;;32.81;27.17;99111.69;7711807;32;39350;-75
2022/06/20 10:51:32;;;;;;;5.57;3.80;;;;;;;33.33;26.57;99107.19;7702641;32;40645;-74
2022/06/20 10:56:03;;;;;;;8.10;3.45;;;;;;;33.28;25.79;99100.03;7699594;32;37930;-75
2022/06/20 11:00:24;;;;;;;7.05;3.33;;;;;;;32.61;27.25;99108.94;7711948;32;37010;-73
2022/06/20 11:05:02;;;;;;;7.32;3.22;;;;;;;33.12;27.44;99093.16;7697714;32;40170;-73
2022/06/20 11:09:51;;;;;;;5.70;3.35;;;;;;;33.36;25.68;99086.50;7699471;32;40052;-74
2022/06/20 11:14:26;;;;;;;6.47;3.25;;;;;;;33.04;25.74;99079.66;7700287;32;38582;-69
2022/06/20 11:18:57;;;;;;;8.57;3.28;;;;;;;32.89;26.31;99088.50;7708879;32;36783;-76
2022/06/20 11:23:15;;;;;;;4.35;3.45;;;;;;;33.38;25.41;99101.78;7698040;32;39213;-69
2022/06/20 11:27:59;;;;;;;5.57;3.17;;;;;;;33.39;25.92;99092.09;7710734;32;41197;-68
2022/06/20 11:32:18;;;;;;;7.32;3.40;;;;;;;33.66;25.16;99090.94;7699139;32;37962;-69
2022/06/20 11:36:57;;;;;;;4.37;3.33;;;;;;;33.91;24.81;99093.09;7711867;32;37778;-75
2022/06/20 11:41:20;;;;;;;6.57;3.17;;;;;;;34.52;22.42;99096.91;7699261;32;39542;-75
2022/06/20 11:46:10;;;;;;;5.53;2.92;;;;;;;35.06;24.35;99092.34;7711312;32;40717;-74
2022/06/20 11:50:34;;;;;;;6.53;2.90;;;;;;;35.41;23.16;99081.06;7713358;32;38740;-73
2022/06/20 11:55:05;;;;;;;4.37;2.97;;;;;;;35.19;22.12;99078.16;7672583;32;37243;-73
2022/06/20 11:59:37;;;;;;;4.00;2.90;;;;;;;35.20;21.95;99076.91;7684729;32;39318;-74
2022/06/20 12:04:00;;;;;;;7.72;3.12;;;;;;;35.37;21.95;99063.41;7684634;32;40041;-74
2022/06/20 12:08:40;;;;;;;5.75;3.67;;;;;;;35.43;21.21;99061.56;7684498;32;37988;-76
2022/06/20 12:13:21;;;;;;;6.97;3.80;;;;;;;35.44;22.91;99057.47;7672252;32;37726;-76
2022/06/20 12:18:03;;;;;;;6.87;2.97;;;;;;;36.15;21.59;99050.38;7688179;32;39418;-74
2022/06/20 12:26:55;;;;;;;9.10;3.10;;;;;;;34.14;19.81;99069.38;7683569;32;38667;-74
2022/06/20 12:31:30;;;;;;;5.65;2.90;;;;;;;33.55;21.33;99059.34;7694986;32;37999;-75
2022/06/20 12:35:54;;;;;;;5.07;2.95;;;;;;;34.55;20.70;99047.13;7737605;32;40094;-74
2022/06/20 12:40:26;;;;;;;7.60;2.72;;;;;;;34.90;20.44;99044.38;7737609;32;40647;-75
2022/06/20 12:44:54;;;;;;;6.32;2.70;;;;;;;34.63;21.14;99033.53;7737222;32;38777;-76
2022/06/20 12:49:32;;;;;;;7.53;2.58;;;;;;;34.61;20.27;99040.41;7737195;32;37188;-76
2022/06/20 12:54:04;;;;;;;6.68;2.60;;;;;;;34.97;19.89;99039.25;7709999;32;39293;-76
2022/06/20 12:58:41;;;;;;;9.88;2.80;;;;;;;35.59;20.76;99032.25;7710353;32;40853;-74
2022/06/20 13:03:25;;;;;;;10.05;2.75;;;;;;;35.44;20.19;99017.00;7709845;32;37900;-75
2022/06/20 13:08:38;;;;;;;6.40;2.95;;;;;;;35.19;20.51;99018.69;7709282;32;38788;-76
2022/06/20 13:12:54;;;;;;;6.20;2.60;;;;;;;35.03;20.66;99019.66;7704851;32;145963;-78
2022/06/20 13:17:47;;;;;;;4.65;2.45;;;;;;;35.47;20.66;99014.03;7709419;32;40929;-76
2022/06/20 13:22:16;;;;;;;6.75;2.75;;;;;;;35.72;20.54;99012.34;7682811;32;38080;-77
2022/06/20 13:27:09;;;;;;;3.58;2.70;;;;;;;36.33;20.70;99024.19;7669836;32;37128;-78
2022/06/20 13:31:33;;;;;;;6.95;2.78;;;;;;;35.88;19.30;99026.31;7670730;32;39186;-77
2022/06/20 13:36:01;;;;;;;5.37;2.90;;;;;;;35.55;20.02;99008.91;7683191;32;40168;-78
2022/06/20 13:40:29;;;;;;;7.85;2.35;;;;;;;35.34;19.70;99016.16;7709246;32;38797;-77
2022/06/20 13:44:46;;;;;;;6.93;2.78;;;;;;;35.19;19.88;99004.53;7711582;32;36966;-78
2022/06/20 13:49:22;;;;;;;7.12;2.80;;;;;;;35.02;21.74;99011.63;7711823;32;39372;-77
2022/06/20 13:54:20;;;;;;;5.68;2.40;;;;;;;35.08;19.26;99004.91;7673069;32;40726;-77
2022/06/20 13:58:48;;;;;;;6.12;2.50;;;;;;;34.94;19.03;98997.69;7667188;32;38711;-78
2022/06/20 14:03:13;;;;;;;5.03;2.20;;;;;;;34.73;20.20;98998.44;7672224;32;34873;-78
2022/06/20 14:07:34;;;;;;;3.85;2.40;;;;;;;35.09;19.32;98989.50;7672767;32;39733;-77
2022/06/20 14:11:57;;;;;;;5.28;2.62;;;;;;;34.72;19.79;98988.37;7685564;32;39984;-77
2022/06/20 14:16:21;;;;;;;8.25;2.85;;;;;;;34.95;19.40;98990.00;7685450;32;38210;-76
2022/06/20 14:21:12;;;;;;;6.72;2.95;;;;;;;35.47;19.92;98980.03;7684267;32;36880;-77
2022/06/20 14:25:47;;;;;;;3.35;2.50;;;;;;;35.32;20.66;98984.66;7666532;32;39063;-77
2022/06/20 14:30:29;;;;;;;3.35;2.35;;;;;;;35.70;19.15;98983.62;7685659;32;39759;-77
2022/06/20 14:35:22;;;;;;;5.68;2.33;;;;;;;35.59;19.04;98977.59;7684922;32;37813;-77
2022/06/20 14:39:53;;;;;;;5.55;2.30;;;;;;;35.73;19.55;98968.56;7683778;32;38007;-77
2022/06/20 14:44:24;;;;;;;6.47;2.65;;;;;;;35.60;19.78;98953.66;7685355;32;39844;-78
2022/06/20 14:48:46;;;;;;;9.00;2.72;;;;;;;34.94;20.16;98945.94;7670930;32;39889;-77
2022/06/20 14:53:25;;;;;;;9.88;2.70;;;;;;;35.37;21.62;98940.78;7707480;32;37964;-77
2022/06/20 14:58:04;;;;;;;4.50;2.40;;;;;;;34.98;21.03;98938.91;7710112;32;37249;-76
2022/06/20 15:02:32;;;;;;;8.27;3.08;;;;;;;35.20;20.81;98937.34;7711656;32;39295;-76
2022/06/20 15:07:10;;;;;;;7.07;2.95;;;;;;;34.74;21.64;98927.22;7697914;32;39896;-78
2022/06/20 15:11:47;;;;;;;7.22;2.83;;;;;;;34.82;21.58;98924.16;7699974;32;37596;-77
2022/06/20 15:16:43;;;;;;;13.25;3.30;;;;;;;34.75;21.22;98928.78;7704484;32;37105;-77
2022/06/20 15:21:12;;;;;;;9.48;2.47;;;;;;;35.69;22.63;98916.88;7676131;32;39091;-78
2022/06/20 15:25:34;;;;;;;11.00;2.95;;;;;;;36.18;20.78;98916.13;7684755;32;39945;-78
2022/06/20 15:29:50;;;;;;;12.07;2.78;;;;;;;36.26;19.72;98914.62;7684742;32;37790;-77
2022/06/20 15:34:37;;;;;;;8.35;2.65;;;;;;;36.23;21.69;98921.22;7684327;32;37398;-76
2022/06/20 15:39:16;;;;;;;9.68;2.90;;;;;;;36.93;20.62;98905.69;7707578;32;41551;-76
2022/06/20 15:43:48;;;;;;;6.80;2.70;;;;;;;36.28;21.38;98902.81;7711385;32;40004;-76
2022/06/20 15:48:26;;;;;;;4.47;2.80;;;;;;;36.20;21.68;98910.78;7710310;32;38094;-75
2022/06/20 15:53:17;;;;;;;12.40;2.80;;;;;;;36.36;22.21;98894.75;7711208;32;37087;-76
2022/06/20 15:58:02;;;;;;;5.55;2.85;;;;;;;36.66;20.67;98905.19;7687211;32;38926;-77
2022/06/20 16:02:35;;;;;;;6.43;2.60;;;;;;;36.15;21.64;98902.87;7698461;32;40049;-78
2022/06/20 16:07:14;;;;;;;8.60;3.33;;;;;;;36.03;22.71;98900.97;7710848;32;37566;-77
2022/06/20 16:11:42;;;;;;;4.53;2.70;;;;;;;35.71;22.57;98891.69;7693954;32;37973;-76
2022/06/20 16:16:24;;;;;;;7.43;2.58;;;;;;;36.06;21.57;98891.53;7696574;32;38824;-77
2022/06/20 16:20:43;;;;;;;5.50;2.60;;;;;;;36.02;21.39;98893.72;7694697;32;40024;-77
2022/06/20 16:25:04;;;;;;;6.40;2.67;;;;;;;36.09;21.92;98882.88;7709484;32;38485;-76
2022/06/20 16:29:24;;;;;;;8.88;3.08;;;;;;;35.69;21.30;98888.53;7696560;32;37914;-77
2022/06/20 16:33:44;;;;;;;6.37;3.05;;;;;;;35.50;22.20;98885.63;7709425;32;40131;-77
2022/06/20 16:38:18;;;;;;;5.95;2.62;;;;;;;35.50;22.01;98891.28;7710194;32;40630;-77
2022/06/20 16:42:54;;;;;;;7.82;3.00;;;;;;;35.90;21.92;98896.19;7672320;32;38013;-77
2022/06/20 16:47:28;;;;;;;5.40;3.00;;;;;;;35.62;22.37;98888.81;7686435;32;37116;-77
2022/06/20 16:51:47;;;;;;;6.68;3.00;;;;;;;35.43;22.96;98894.41;7736678;32;40499;-77
2022/06/20 16:56:05;;;;;;;6.10;3.25;;;;;;;35.20;23.44;98886.34;7715170;32;39378;-77
2022/06/20 17:00:28;;;;;;;6.65;3.00;;;;;;;34.57;24.25;98874.84;7702635;32;36902;-77
2022/06/20 17:05:08;;;;;;;4.78;3.12;;;;;;;34.90;25.04;98868.84;7736446;32;37239;-76
2022/06/20 17:09:30;;;;;;;10.18;3.25;;;;;;;34.64;25.61;98873.81;7736646;32;38129;-77
2022/06/20 17:14:15;;;;;;;10.25;3.60;;;;;;;34.19;25.27;98884.22;7736266;32;40833;-77
2022/06/20 17:18:53;;;;;;;5.22;3.33;;;;;;;34.15;26.68;98872.22;7706223;32;38917;-76
2022/06/20 17:23:37;;;;;;;8.80;3.35;;;;;;;33.96;26.67;98860.72;7712650;32;37787;-78
2022/06/20 17:28:17;;;;;;;8.48;3.75;;;;;;;34.08;26.52;98867.56;7699782;32;39421;-74
2022/06/20 17:32:40;;;;;;;7.80;3.12;;;;;;;33.60;28.00;98877.97;7707342;32;39882;-73
2022/06/20 17:37:02;;;;;;;6.15;3.37;;;;;;;33.78;27.96;98872.59;7705702;32;38669;-76
2022/06/20 17:41:54;;;;;;;14.52;3.47;;;;;;;33.64;27.71;98868.16;7698116;32;37944;-74
2022/06/20 17:46:20;;;;;;;8.90;3.40;;;;;;;33.34;27.86;98880.00;7692194;32;39495;-78
2022/06/20 17:50:52;;;;;;;10.75;3.50;;;;;;;33.41;28.57;98893.91;7711961;32;39972;-76
2022/06/20 17:55:25;;;;;;;6.37;3.30;;;;;;;33.25;29.40;98889.13;7699434;32;38744;-79
2022/06/20 17:59:55;;;;;;;9.88;3.70;;;;;;;33.02;30.28;98885.31;7695173;32;37598;-76
2022/06/20 18:04:27;;;;;;;11.95;3.60;;;;;;;33.01;30.54;98880.13;7700204;32;39611;-80
2022/06/20 18:09:09;;;;;;;9.50;3.70;;;;;;;32.86;30.14;98888.22;7698686;32;40076;-75
2022/06/20 18:13:34;;;;;;;11.90;3.60;;;;;;;32.71;30.74;98879.34;7704409;32;38415;-76
2022/06/20 18:18:03;;;;;;;9.23;3.97;;;;;;;32.56;31.35;98887.34;7712091;32;37356;-73
2022/06/20 18:22:26;;;;;;;13.05;4.12;;;;;;;32.45;31.38;98898.16;7712623;32;39402;-75
2022/06/20 18:26:47;;;;;;;13.32;4.32;;;;;;;32.05;32.73;98899.12;7706143;32;39935;-74
2022/06/20 18:31:08;;;;;;;8.60;4.75;;;;;;;31.98;32.64;98893.66;7697109;32;38016;-75
2022/06/20 18:35:25;;;;;;;10.43;4.40;;;;;;;31.71;33.07;98894.66;7705563;32;37247;-74
2022/06/20 18:40:07;;;;;;;16.67;5.12;;;;;;;31.66;33.42;98908.47;7711342;32;40081;-75
2022/06/20 18:44:26;;;;;;;10.02;4.62;;;;;;;31.37;34.36;98912.66;7711765;32;39651;-74
2022/06/20 18:48:49;;;;;;;10.70;3.97;;;;;;;31.26;34.51;98909.28;7711734;32;37789;-74
2022/06/20 18:53:14;;;;;;;9.45;4.32;;;;;;;31.21;33.85;98909.81;7697547;32;37737;-75
2022/06/20 18:58:04;;;;;;;7.32;4.25;;;;;;;31.15;34.45;98897.44;7700121;32;39364;-74
2022/06/20 19:02:35;;;;;;;8.23;4.00;;;;;;;31.00;34.27;98909.00;7711642;32;40495;-74
2022/06/20 19:07:10;;;;;;;12.93;4.68;;;;;;;30.86;34.54;98926.16;7710823;32;38465;-76
2022/06/20 19:11:40;;;;;;;16.90;5.03;;;;;;;30.66;35.05;98924.06;7710955;32;37965;-75
2022/06/20 19:16:26;;;;;;;13.25;4.53;;;;;;;30.40;36.06;98924.97;7672248;32;40168;-74
2022/06/20 19:20:51;;;;;;;7.78;4.30;;;;;;;30.15;36.78;98945.81;7643924;32;39733;-75
2022/06/20 19:25:13;;;;;;;12.80;4.55;;;;;;;30.09;36.80;98941.87;7685113;32;37992;-75
2022/06/20 19:29:40;;;;;;;12.70;4.82;;;;;;;29.95;36.98;98942.91;7671395;32;37855;-76
2022/06/20 19:34:31;;;;;;;10.02;4.35;;;;;;;29.90;36.92;98941.34;7670457;32;40121;-74
2022/06/20 19:38:53;;;;;;;8.13;4.30;;;;;;;29.76;37.24;98939.53;7679887;32;40917;-76
2022/06/20 19:43:09;;;;;;;5.57;3.95;;;;;;;29.66;37.68;98923.59;7697976;32;37744;-75
2022/06/20 19:47:27;;;;;;;6.93;3.97;;;;;;;29.55;38.22;98940.63;7711315;32;37048;-75
2022/06/20 19:51:46;;;;;;;6.93;4.62;;;;;;;29.43;38.66;98955.22;7711471;32;39801;-74
2022/06/20 19:56:05;;;;;;;6.20;4.40;;;;;;;29.24;38.75;98953.06;7711286;32;39611;-74
2022/06/20 20:00:21;;;;;;;5.53;4.43;;;;;;;29.27;38.78;98946.56;7697411;32;37569;-75
2022/06/20 20:04:42;;;;;;;7.32;4.78;;;;;;;29.17;39.09;98954.72;7710302;32;37802;-74
2022/06/20 20:09:00;;;;;;;23.23;5.28;;;;;;;29.16;39.22;98955.13;7682113;32;39977;-74
2022/06/20 20:13:41;;;;;;;15.88;4.72;;;;;;;29.14;39.21;98958.31;7668427;32;39875;-74
2022/06/20 20:18:24;;;;;;;10.43;5.50;;;;;;;28.81;39.55;98957.09;7683786;32;37837;-75
2022/06/20 20:22:48;;;;;;;8.70;4.72;;;;;;;28.76;39.94;98955.50;7668461;32;37028;-74
2022/06/20 20:27:27;;;;;;;12.73;4.70;;;;;;;28.66;40.16;98964.81;7661628;32;39356;-74
2022/06/20 20:31:49;;;;;;;12.93;5.30;;;;;;;28.60;40.49;98949.69;7668823;32;40686;-75
2022/06/20 20:36:23;;;;;;;10.93;5.32;;;;;;;28.51;40.30;98969.75;7669516;32;37865;-75
2022/06/20 20:41:05;;;;;;;12.98;5.82;;;;;;;28.49;40.96;98983.34;7669109;32;37741;-74
2022/06/20 20:45:39;;;;;;;9.68;5.03;;;;;;;28.27;41.59;98983.53;7671334;32;39409;-75
2022/06/20 20:50:05;;;;;;;9.75;4.90;;;;;;;28.32;41.24;98979.50;7662003;32;40710;-75
2022/06/20 20:54:22;;;;;;;9.45;4.95;;;;;;;27.87;42.66;98977.38;7703751;32;37976;-75
2022/06/20 20:59:03;;;;;;;14.75;6.30;;;;;;;27.85;42.38;98976.97;7706048;32;37588;-73
2022/06/20 21:03:27;;;;;;;14.40;5.50;;;;;;;27.93;42.57;98966.56;7701605;32;38053;-74
2022/06/20 21:07:50;;;;;;;9.13;5.05;;;;;;;27.84;42.66;98969.78;7680343;32;40002;-74
2022/06/20 21:12:12;;;;;;;9.73;5.32;;;;;;;27.76;42.58;98973.03;7684126;32;37872;-74
2022/06/20 21:16:39;;;;;;;8.38;5.18;;;;;;;27.73;42.67;98978.25;7704350;32;37154;-74
2022/06/20 21:21:01;;;;;;;8.65;5.35;;;;;;;27.77;42.68;98988.59;7692572;32;39037;-75